createdAt,value
2023-05-21T00:02:18.764Z,102013.56
2023-05-21T00:04:45.377Z,102019.41
2023-05-21T00:07:12.645Z,102022.38
2023-05-21T00:09:39.544Z,102013.72
2023-05-21T00:12:07.177Z,102014.22
2023-05-21T00:14:34.253Z,102010.84
2023-05-21T00:17:00.726Z,102020.81
2023-05-21T00:19:27.342Z,102019.22
2023-05-21T00:21:54.722Z,102020.41
2023-05-21T00:24:21.231Z,102017.00
2023-05-21T00:26:47.665Z,102016.81
2023-05-21T00:29:14.097Z,102010.25
2023-05-21T00:31:40.573Z,102003.16
2023-05-21T00:34:06.956Z,102002.47
2023-05-21T00:36:34.644Z,102002.47
2023-05-21T00:39:02.312Z,101994.19
2023-05-21T00:41:30.134Z,102000.22
2023-05-21T00:43:57.116Z,101994.69
2023-05-21T00:46:23.965Z,101992.72
2023-05-21T00:48:51.025Z,101991.88
2023-05-21T00:51:18.467Z,101985.94
2023-05-21T00:53:45.898Z,101992.72
2023-05-21T00:56:12.457Z,101989.16
2023-05-21T00:58:39.732Z,101988.91
2023-05-21T01:01:06.728Z,101983.13
2023-05-21T01:03:38.574Z,101986.56
2023-05-21T01:06:06.800Z,101985.78
2023-05-21T01:08:35.050Z,101989.00
2023-05-21T01:11:03.112Z,101978.81
2023-05-21T01:13:31.387Z,101985.66
2023-05-21T01:15:59.158Z,101979.28
2023-05-21T01:18:26.767Z,101984.50
2023-05-21T01:20:53.580Z,101974.66
2023-05-21T01:23:20.576Z,101965.41
2023-05-21T01:25:47.271Z,101971.84
2023-05-21T01:28:14.050Z,101972.69
2023-05-21T01:30:42.780Z,101969.88
2023-05-21T01:33:17.412Z,101971.16
2023-05-21T01:35:46.811Z,101967.38
2023-05-21T01:38:29.283Z,101967.88
2023-05-21T01:41:03.506Z,101968.03
2023-05-21T01:43:33.897Z,101964.88
2023-05-21T01:46:01.756Z,101967.47
2023-05-21T01:48:29.523Z,101966.31
2023-05-21T01:51:00.066Z,101961.94
2023-05-21T01:53:26.516Z,101967.88
2023-05-21T01:55:54.519Z,101961.34
2023-05-21T01:58:21.519Z,101967.28
2023-05-21T02:00:47.998Z,101964.00
2023-05-21T02:03:17.106Z,101966.13
2023-05-21T02:05:43.663Z,101967.09
2023-05-21T02:08:10.128Z,101957.50
2023-05-21T02:10:36.837Z,101960.00
2023-05-21T02:13:03.496Z,101958.69
2023-05-21T02:15:30.321Z,101958.31
2023-05-21T02:17:58.405Z,101960.22
2023-05-21T02:20:25.064Z,101957.16
2023-05-21T02:22:51.555Z,101959.91
2023-05-21T02:25:19.753Z,101955.50
2023-05-21T02:27:46.954Z,101951.72
2023-05-21T02:30:16.228Z,101951.94
2023-05-21T02:32:43.302Z,101951.84
2023-05-21T02:35:11.533Z,101954.47
2023-05-21T02:37:40.269Z,101954.09
2023-05-21T02:40:08.141Z,101958.72
2023-05-21T02:42:34.541Z,101958.72
2023-05-21T02:45:00.986Z,101948.28
2023-05-21T02:47:27.484Z,101956.25
2023-05-21T02:49:54.103Z,101957.78
2023-05-21T02:52:23.916Z,101952.31
2023-05-21T02:54:50.508Z,101950.91
2023-05-21T02:57:18.252Z,101951.75
2023-05-21T02:59:45.833Z,101949.28
2023-05-21T03:02:12.409Z,101948.09
2023-05-21T03:04:39.212Z,101949.88
2023-05-21T03:07:06.045Z,101954.28
2023-05-21T03:09:32.484Z,101951.56
2023-05-21T03:11:58.903Z,101949.88
2023-05-21T03:14:25.298Z,101954.28
2023-05-21T03:16:51.740Z,101953.19
2023-05-21T03:19:18.237Z,101940.13
2023-05-21T03:21:44.714Z,101950.22
2023-05-21T03:24:13.582Z,101937.69
2023-05-21T03:26:40.016Z,101931.66
2023-05-21T03:29:06.446Z,101924.31
2023-05-21T03:31:32.902Z,101933.53
2023-05-21T03:33:59.351Z,101934.69
2023-05-21T03:36:25.831Z,101939.09
2023-05-21T03:38:52.271Z,101925.47
2023-05-21T03:41:18.682Z,101926.53
2023-05-21T03:43:45.246Z,101930.06
2023-05-21T03:46:11.654Z,101931.97
2023-05-21T03:48:38.101Z,101928.44
2023-05-21T03:51:04.517Z,101927.97
2023-05-21T03:53:30.983Z,101926.03
2023-05-21T03:55:57.349Z,101930.44
2023-05-21T03:58:24.278Z,101934.56
2023-05-21T04:00:51.003Z,101934.94
2023-05-21T04:03:18.102Z,101927.59
2023-05-21T04:05:44.841Z,101930.06
2023-05-21T04:08:11.637Z,101921.03
2023-05-21T04:10:38.016Z,101929.69
2023-05-21T04:13:04.452Z,101925.47
2023-05-21T04:15:31.094Z,101929.41
2023-05-21T04:17:58.584Z,101923.38
2023-05-21T04:20:25.018Z,101931.28
2023-05-21T04:22:51.985Z,101923.94
2023-05-21T04:25:20.336Z,101921.94
2023-05-21T04:27:47.733Z,101928.00
2023-05-21T04:30:14.154Z,101926.41
2023-05-21T04:32:40.625Z,101927.75
2023-05-21T04:35:09.998Z,101932.47
2023-05-21T04:37:36.394Z,101935.22
2023-05-21T04:40:03.149Z,101936.25
2023-05-21T04:42:30.347Z,101933.53
2023-05-21T04:44:59.286Z,101930.22
2023-05-21T04:47:25.765Z,101941.34
2023-05-21T04:49:53.342Z,101938.88
2023-05-21T04:52:19.861Z,101941.59
2023-05-21T04:54:47.821Z,101931.03
2023-05-21T04:57:14.288Z,101940.66
2023-05-21T04:59:41.369Z,101936.38
2023-05-21T05:02:07.759Z,101940.84
2023-05-21T05:04:34.195Z,101938.47
2023-05-21T05:07:00.640Z,101942.34
2023-05-21T05:09:27.112Z,101949.47
2023-05-21T05:11:53.558Z,101944.63
2023-05-21T05:14:19.915Z,101952.34
2023-05-21T05:16:48.289Z,101950.53
2023-05-21T05:19:14.943Z,101947.81
2023-05-21T05:21:41.634Z,101944.38
2023-05-21T05:24:08.025Z,101941.97
2023-05-21T05:26:34.486Z,101949.09
2023-05-21T05:29:01.006Z,101947.50
2023-05-21T05:31:27.498Z,101938.84
2023-05-21T05:33:53.994Z,101943.25
2023-05-21T05:36:21.085Z,101948.22
2023-05-21T05:38:47.476Z,101946.16
2023-05-21T05:41:13.827Z,101943.53
2023-05-21T05:43:40.218Z,101938.09
2023-05-21T05:46:06.697Z,101946.84
2023-05-21T05:48:33.173Z,101947.50
2023-05-21T05:50:59.863Z,101947.41
2023-05-21T05:53:26.258Z,101945.03
2023-05-21T05:55:52.788Z,101942.41
2023-05-21T05:58:19.322Z,101943.22
2023-05-21T06:00:46.016Z,101948.19
2023-05-21T06:03:12.700Z,101943.09
2023-05-21T06:05:39.441Z,101940.78
2023-05-21T06:08:06.336Z,101935.41
2023-05-21T06:10:32.727Z,101935.97
2023-05-21T06:12:59.092Z,101930.44
2023-05-21T06:15:25.458Z,101924.94
2023-05-21T06:17:51.875Z,101922.59
2023-05-21T06:20:18.311Z,101921.25
2023-05-21T06:22:44.705Z,101931.06
2023-05-21T06:25:11.169Z,101922.41
2023-05-21T06:27:38.557Z,101924.88
2023-05-21T06:30:05.884Z,101913.38
2023-05-21T06:32:32.338Z,101927.09
2023-05-21T06:34:58.832Z,101915.84
2023-05-21T06:37:26.666Z,101919.34
2023-05-21T06:39:53.186Z,101922.69
2023-05-21T06:42:19.595Z,101921.31
2023-05-21T06:44:46.030Z,101921.44
2023-05-21T06:47:12.528Z,101922.09
2023-05-21T06:49:39.018Z,101917.78
2023-05-21T06:52:05.738Z,101912.97
2023-05-21T06:54:32.171Z,101915.16
2023-05-21T06:56:58.732Z,101920.13
2023-05-21T06:59:25.108Z,101907.31
2023-05-21T07:01:51.486Z,101918.03
2023-05-21T07:04:17.900Z,101919.81
2023-05-21T07:06:44.267Z,101912.84
2023-05-21T07:09:10.733Z,101914.28
2023-05-21T07:11:37.175Z,101915.16
2023-05-21T07:14:03.981Z,101915.69
2023-05-21T07:16:30.573Z,101914.50
2023-05-21T07:18:57.077Z,101912.16
2023-05-21T07:21:24.249Z,101920.75
2023-05-21T07:23:50.696Z,101911.81
2023-05-21T07:26:17.229Z,101915.81
2023-05-21T07:28:43.744Z,101917.78
2023-05-21T07:31:12.105Z,101920.03
2023-05-21T07:33:38.634Z,101911.28
2023-05-21T07:36:05.482Z,101917.66
2023-05-21T07:38:32.394Z,101910.88
2023-05-21T07:40:58.806Z,101915.34
2023-05-21T07:43:25.242Z,101920.31
2023-05-21T07:45:51.810Z,101918.50
2023-05-21T07:48:18.818Z,101908.31
2023-05-21T07:50:45.292Z,101914.38
2023-05-21T07:53:11.771Z,101903.41
2023-05-21T07:55:38.480Z,101909.72
2023-05-21T07:58:05.091Z,101911.94
2023-05-21T08:00:42.587Z,101899.03
2023-05-21T08:03:09.010Z,101889.91
2023-05-21T08:05:35.936Z,101887.69
2023-05-21T08:08:02.438Z,101878.06
2023-05-21T08:10:29.017Z,101888.00
2023-05-21T08:12:55.426Z,101885.78
2023-05-21T08:15:22.333Z,101887.09
2023-05-21T08:17:48.824Z,101881.25
2023-05-21T08:20:15.462Z,101883.53
2023-05-21T08:22:43.272Z,101888.22
2023-05-21T08:25:09.887Z,101884.94
2023-05-21T08:27:36.473Z,101879.69
2023-05-21T08:30:02.974Z,101888.47
2023-05-21T08:32:29.464Z,101888.50
2023-05-21T08:34:56.378Z,101888.44
2023-05-21T08:37:22.786Z,101888.94
2023-05-21T08:39:49.142Z,101889.22
2023-05-21T08:42:39.109Z,101890.66
2023-05-21T08:45:09.091Z,101885.47
2023-05-21T08:47:36.925Z,101884.78
2023-05-21T08:50:04.867Z,101891.94
2023-05-21T08:52:32.292Z,101892.50
2023-05-21T08:54:59.797Z,101883.28
2023-05-21T08:57:27.248Z,101890.47
2023-05-21T08:59:54.737Z,101888.47
2023-05-21T09:02:21.333Z,101893.56
2023-05-21T09:04:49.735Z,101884.88
2023-05-21T09:07:16.980Z,101885.84
2023-05-21T09:09:57.650Z,101894.88
2023-05-21T09:12:25.406Z,101895.81
2023-05-21T09:14:52.494Z,101897.81
2023-05-21T09:17:20.405Z,101884.00
2023-05-21T09:20:13.214Z,101882.94
2023-05-21T09:22:44.440Z,101885.78
2023-05-21T09:25:13.673Z,101883.00
2023-05-21T09:27:40.176Z,101880.03
2023-05-21T09:30:14.984Z,101884.25
2023-05-21T09:32:43.651Z,101884.00
2023-05-21T09:35:15.908Z,101868.66
2023-05-21T09:37:43.969Z,101874.31
2023-05-21T09:40:18.380Z,101867.13
2023-05-21T09:42:55.140Z,101868.97
2023-05-21T09:45:23.829Z,101867.44
2023-05-21T09:47:52.238Z,101871.50
2023-05-21T09:50:26.968Z,101868.66
2023-05-21T09:52:55.349Z,101853.88
2023-05-21T09:55:26.564Z,101855.28
2023-05-21T09:57:53.338Z,101850.00
2023-05-21T10:00:24.255Z,101847.19
2023-05-21T10:02:55.187Z,101835.91
2023-05-21T10:05:26.681Z,101838.34
2023-05-21T10:07:56.749Z,101826.91
2023-05-21T10:10:23.683Z,101830.16
2023-05-21T10:12:58.335Z,101835.16
2023-05-21T10:15:27.901Z,101832.09
2023-05-21T10:17:55.881Z,101823.91
2023-05-21T10:20:22.600Z,101823.81
2023-05-21T10:22:50.549Z,101813.72
2023-05-21T10:25:17.359Z,101807.13
2023-05-21T10:27:44.887Z,101811.50
2023-05-21T10:30:11.741Z,101815.84
2023-05-21T10:32:40.493Z,101811.94
2023-05-21T10:35:08.832Z,101814.56
2023-05-21T10:37:35.606Z,101814.22
2023-05-21T10:40:02.251Z,101814.34
2023-05-21T10:42:31.935Z,101817.28
2023-05-21T10:45:04.036Z,101797.59
2023-05-21T10:47:54.385Z,101799.06
2023-05-21T10:50:57.577Z,101795.13
2023-05-21T10:53:23.963Z,101799.25
2023-05-21T10:56:06.653Z,101800.19
2023-05-21T10:59:00.841Z,101796.88
2023-05-21T11:01:34.043Z,101795.41
2023-05-21T11:04:00.847Z,101805.09
2023-05-21T11:06:27.940Z,101805.53
2023-05-21T11:08:55.530Z,101795.81
2023-05-21T11:11:46.017Z,101809.72
2023-05-21T11:14:36.696Z,101799.06
2023-05-21T11:17:16.328Z,101801.44
2023-05-21T11:19:47.005Z,101792.59
2023-05-21T11:22:27.092Z,101802.31
2023-05-21T11:24:55.479Z,101799.16
2023-05-21T11:27:39.651Z,101793.03
2023-05-21T11:30:10.452Z,101781.84
2023-05-21T11:33:12.211Z,101781.53
2023-05-21T11:35:44.951Z,101771.28
2023-05-21T11:38:11.485Z,101770.25
2023-05-21T11:40:38.375Z,101769.63
2023-05-21T11:43:04.919Z,101771.72
2023-05-21T11:45:32.859Z,101768.94
2023-05-21T11:48:00.403Z,101758.63
2023-05-21T11:50:28.317Z,101756.81
2023-05-21T11:52:54.765Z,101756.19
2023-05-21T11:55:22.806Z,101749.78
2023-05-21T11:57:53.649Z,101755.81
2023-05-21T12:00:20.136Z,101747.66
2023-05-21T12:02:50.025Z,101749.88
2023-05-21T12:05:16.968Z,101750.25
2023-05-21T12:07:48.599Z,101742.97
2023-05-21T12:10:15.078Z,101739.88
2023-05-21T12:12:53.976Z,101740.13
2023-05-21T12:15:22.719Z,101739.13
2023-05-21T12:17:52.675Z,101741.72
2023-05-21T12:20:19.971Z,101746.78
2023-05-21T12:22:49.253Z,101721.31
2023-05-21T12:25:19.826Z,101722.59
2023-05-21T12:27:46.723Z,101721.28
2023-05-21T12:30:13.624Z,101712.91
2023-05-21T12:32:45.774Z,101721.31
2023-05-21T12:35:23.485Z,101714.50
2023-05-21T12:37:51.065Z,101721.47
2023-05-21T12:40:18.109Z,101718.13
2023-05-21T12:42:44.701Z,101715.44
2023-05-21T12:45:11.555Z,101713.19
2023-05-21T12:47:38.433Z,101721.28
2023-05-21T12:50:08.505Z,101720.94
2023-05-21T12:52:35.018Z,101711.63
2023-05-21T12:55:01.468Z,101712.84
2023-05-21T12:57:35.793Z,101709.63
2023-05-21T13:00:04.349Z,101709.09
2023-05-21T13:02:38.663Z,101710.66
2023-05-21T13:05:26.381Z,101716.84
2023-05-21T13:07:52.735Z,101717.69
2023-05-21T13:10:19.223Z,101716.53
2023-05-21T13:12:46.280Z,101728.22
2023-05-21T13:15:12.950Z,101716.56
2023-05-21T13:17:39.390Z,101716.19
2023-05-21T13:20:13.143Z,101714.59
2023-05-21T13:22:47.302Z,101711.03
2023-05-21T13:25:16.394Z,101695.31
2023-05-21T13:27:43.353Z,101700.88
2023-05-21T13:30:11.732Z,101695.78
2023-05-21T13:32:40.079Z,101688.97
2023-05-21T13:35:07.160Z,101688.84
2023-05-21T13:37:36.158Z,101683.53
2023-05-21T13:40:10.338Z,101693.50
2023-05-21T13:42:40.052Z,101699.16
2023-05-21T13:45:08.928Z,101687.78
2023-05-21T13:47:37.606Z,101688.34
2023-05-21T13:50:07.149Z,101685.13
2023-05-21T13:52:33.628Z,101686.31
2023-05-21T13:55:00.186Z,101683.66
2023-05-21T13:57:30.872Z,101676.53
2023-05-21T13:59:58.247Z,101683.44
2023-05-21T14:02:24.892Z,101693.66
2023-05-21T14:04:51.590Z,101698.38
2023-05-21T14:07:18.099Z,101686.63
2023-05-21T14:09:44.437Z,101691.06
2023-05-21T14:12:10.841Z,101690.06
2023-05-21T14:14:37.816Z,101696.41
2023-05-21T14:17:04.667Z,101687.28
2023-05-21T14:19:31.691Z,101697.16
2023-05-21T14:21:59.774Z,101696.97
2023-05-21T14:24:26.207Z,101697.06
2023-05-21T14:26:52.578Z,101689.38
2023-05-21T14:29:18.960Z,101688.19
2023-05-21T14:31:46.286Z,101688.19
2023-05-21T14:34:12.741Z,101680.34
2023-05-21T14:36:39.288Z,101683.34
2023-05-21T14:39:05.774Z,101681.59
2023-05-21T14:41:32.135Z,101685.19
2023-05-21T14:43:58.563Z,101681.84
2023-05-21T14:46:25.158Z,101681.25
2023-05-21T14:48:51.756Z,101666.13
2023-05-21T14:51:19.163Z,101673.19
2023-05-21T14:53:45.566Z,101672.75
2023-05-21T14:56:11.998Z,101666.38
2023-05-21T14:58:38.415Z,101674.03
2023-05-21T15:01:05.100Z,101656.03
2023-05-21T15:03:31.664Z,101663.97
2023-05-21T15:05:58.604Z,101660.31
2023-05-21T15:08:25.428Z,101657.44
2023-05-21T15:10:52.093Z,101649.31
2023-05-21T15:13:18.834Z,101649.69
2023-05-21T15:15:45.458Z,101651.88
2023-05-21T15:18:11.951Z,101644.47
2023-05-21T15:20:38.383Z,101643.88
2023-05-21T15:23:16.011Z,101649.25
2023-05-21T15:25:42.990Z,101640.44
2023-05-21T15:28:09.357Z,101647.06
2023-05-21T15:30:35.732Z,101640.72
2023-05-21T15:33:02.095Z,101646.13
2023-05-21T15:35:28.599Z,101657.88
2023-05-21T15:37:55.099Z,101652.66
2023-05-21T15:40:21.538Z,101655.09
2023-05-21T15:42:47.975Z,101654.53
2023-05-21T15:45:14.514Z,101648.63
2023-05-21T15:47:42.689Z,101650.78
2023-05-21T15:50:10.294Z,101638.03
2023-05-21T15:52:37.060Z,101637.00
2023-05-21T15:55:03.481Z,101645.13
2023-05-21T15:57:30.143Z,101630.97
2023-05-21T15:59:56.570Z,101627.34
2023-05-21T16:02:23.043Z,101618.72
2023-05-21T16:04:51.635Z,101617.47
2023-05-21T16:07:18.706Z,101617.72
2023-05-21T16:09:45.147Z,101623.41
2023-05-21T16:12:11.604Z,101624.00
2023-05-21T16:14:37.987Z,101628.19
2023-05-21T16:17:04.760Z,101626.88
2023-05-21T16:19:31.549Z,101629.63
2023-05-21T16:21:58.045Z,101631.09
2023-05-21T16:24:24.510Z,101633.22
2023-05-21T16:26:50.913Z,101631.84
2023-05-21T16:29:17.328Z,101632.84
2023-05-21T16:31:43.868Z,101637.56
2023-05-21T16:34:10.433Z,101634.53
2023-05-21T16:36:38.218Z,101630.63
2023-05-21T16:39:04.616Z,101638.59
2023-05-21T16:41:31.137Z,101634.97
2023-05-21T16:43:57.519Z,101633.56
2023-05-21T16:46:24.005Z,101641.56
2023-05-21T16:48:50.597Z,101634.00
2023-05-21T16:51:17.009Z,101637.09
2023-05-21T16:53:43.436Z,101636.94
2023-05-21T16:56:09.871Z,101640.19
2023-05-21T16:58:36.346Z,101636.50
2023-05-21T17:01:03.602Z,101632.28
2023-05-21T17:03:32.361Z,101632.81
2023-05-21T17:05:59.039Z,101638.19
2023-05-21T17:08:25.420Z,101643.88
2023-05-21T17:10:51.904Z,101648.63
2023-05-21T17:13:22.702Z,101642.69
2023-05-21T17:15:53.110Z,101652.66
2023-05-21T17:18:19.646Z,101646.44
2023-05-21T17:20:46.119Z,101645.22
2023-05-21T17:23:12.704Z,101647.97
2023-05-21T17:25:39.893Z,101644.47
2023-05-21T17:28:06.706Z,101651.66
2023-05-21T17:30:33.439Z,101649.69
2023-05-21T17:33:02.075Z,101649.94
2023-05-21T17:35:28.573Z,101648.28
2023-05-21T17:37:55.210Z,101642.41
2023-05-21T17:40:24.208Z,101641.38
2023-05-21T17:42:51.731Z,101652.53
2023-05-21T17:45:18.502Z,101643.59
2023-05-21T17:47:44.970Z,101646.03
2023-05-21T17:50:11.546Z,101645.41
2023-05-21T17:52:38.113Z,101646.00
2023-05-21T17:55:05.134Z,101640.34
2023-05-21T17:57:31.562Z,101644.03
2023-05-21T17:59:58.065Z,101641.44
2023-05-21T18:02:25.320Z,101647.88
2023-05-21T18:04:51.693Z,101653.72
2023-05-21T18:07:18.048Z,101655.44
2023-05-21T18:09:44.463Z,101653.25
2023-05-21T18:12:11.062Z,101648.75
2023-05-21T18:14:37.501Z,101646.53
2023-05-21T18:17:04.171Z,101648.91
2023-05-21T18:19:33.679Z,101653.34
2023-05-21T18:22:00.176Z,101655.06
2023-05-21T18:24:26.609Z,101654.66
2023-05-21T18:26:53.026Z,101646.41
2023-05-21T18:29:19.466Z,101649.16
2023-05-21T18:31:46.040Z,101648.84
2023-05-21T18:34:12.666Z,101649.72
2023-05-21T18:36:39.993Z,101657.50
2023-05-21T18:39:09.764Z,101654.72
2023-05-21T18:41:37.178Z,101655.91
2023-05-21T18:44:04.038Z,101649.88
2023-05-21T18:46:31.583Z,101654.53
2023-05-21T18:49:00.060Z,101654.94
2023-05-21T18:51:26.564Z,101653.31
2023-05-21T18:53:53.195Z,101654.56
2023-05-21T18:56:19.632Z,101646.53
2023-05-21T18:58:46.246Z,101652.34
2023-05-21T19:01:12.761Z,101649.59
2023-05-21T19:03:39.357Z,101653.72
2023-05-21T19:06:05.838Z,101659.53
2023-05-21T19:08:32.242Z,101655.72
2023-05-21T19:10:58.610Z,101658.53
2023-05-21T19:13:26.209Z,101658.28
2023-05-21T19:15:52.685Z,101656.41
2023-05-21T19:18:19.169Z,101655.59
2023-05-21T19:20:45.554Z,101650.13
2023-05-21T19:23:12.084Z,101654.22
2023-05-21T19:25:38.577Z,101655.34
2023-05-21T19:28:05.362Z,101654.78
2023-05-21T19:30:34.793Z,101659.75
2023-05-21T19:33:01.609Z,101659.72
2023-05-21T19:35:28.151Z,101662.75
2023-05-21T19:37:58.625Z,101657.81
2023-05-21T19:40:25.373Z,101656.44
2023-05-21T19:42:51.745Z,101657.28
2023-05-21T19:45:18.146Z,101661.38
2023-05-21T19:47:44.604Z,101667.44
2023-05-21T19:50:11.688Z,101670.16
2023-05-21T19:52:39.083Z,101672.88
2023-05-21T19:55:08.531Z,101676.44
2023-05-21T19:57:34.886Z,101682.22
2023-05-21T20:00:01.318Z,101685.75
2023-05-21T20:02:30.568Z,101686.28
2023-05-21T20:04:58.693Z,101681.06
2023-05-21T20:07:25.122Z,101690.66
2023-05-21T20:09:52.239Z,101687.66
2023-05-21T20:12:18.770Z,101685.47
2023-05-21T20:14:49.497Z,101683.25
2023-05-21T20:17:18.758Z,101693.16
2023-05-21T20:19:48.034Z,101690.16
2023-05-21T20:22:17.764Z,101689.56
2023-05-21T20:24:44.163Z,101698.88
2023-05-21T20:27:10.525Z,101695.59
2023-05-21T20:29:36.898Z,101696.13
2023-05-21T20:32:03.406Z,101688.44
2023-05-21T20:34:29.854Z,101691.19
2023-05-21T20:36:58.174Z,101694.94
2023-05-21T20:39:27.175Z,101699.03
2023-05-21T20:41:54.915Z,101693.56
2023-05-21T20:44:22.410Z,101685.28
2023-05-21T20:46:49.082Z,101679.00
2023-05-21T20:49:15.642Z,101685.28
2023-05-21T20:51:42.355Z,101685.03
2023-05-21T20:54:09.829Z,101695.09
2023-05-21T20:56:42.118Z,101687.97
2023-05-21T20:59:10.892Z,101679.69
2023-05-21T21:01:38.087Z,101672.81
2023-05-21T21:04:04.916Z,101674.69
2023-05-21T21:06:31.793Z,101672.75
2023-05-21T21:08:58.397Z,101670.84
2023-05-21T21:11:24.941Z,101672.41
2023-05-21T21:13:51.848Z,101675.16
2023-05-21T21:16:18.472Z,101672.38
2023-05-21T21:18:46.710Z,101670.75
2023-05-21T21:21:13.172Z,101675.97
2023-05-21T21:23:39.612Z,101672.97
2023-05-21T21:26:06.123Z,101667.44
2023-05-21T21:28:32.468Z,101663.59
2023-05-21T21:30:58.877Z,101659.75
2023-05-21T21:33:26.603Z,101655.88
2023-05-21T21:35:53.193Z,101657.59
2023-05-21T21:38:19.615Z,101660.03
2023-05-21T21:40:46.051Z,101657.84
2023-05-21T21:43:12.496Z,101667.97
2023-05-21T21:45:38.941Z,101660.75
2023-05-21T21:48:05.757Z,101660.84
2023-05-21T21:50:32.197Z,101656.19
2023-05-21T21:52:59.801Z,101655.66
2023-05-21T21:55:26.393Z,101656.19
2023-05-21T21:57:52.806Z,101657.53
2023-05-21T22:00:19.506Z,101664.31
2023-05-21T22:02:46.661Z,101658.50
2023-05-21T22:05:14.615Z,101664.81
2023-05-21T22:07:42.537Z,101665.94
2023-05-21T22:10:09.402Z,101661.28
2023-05-21T22:12:35.957Z,101658.53
2023-05-21T22:15:05.220Z,101661.25
2023-05-21T22:17:32.681Z,101659.56
2023-05-21T22:19:59.038Z,101651.63
2023-05-21T22:22:25.962Z,101644.00
2023-05-21T22:24:53.155Z,101650.81
2023-05-21T22:27:20.588Z,101647.44
2023-05-21T22:29:47.027Z,101645.28
2023-05-21T22:32:13.827Z,101643.63
2023-05-21T22:34:41.752Z,101646.53
2023-05-21T22:37:08.124Z,101645.31
2023-05-21T22:39:34.518Z,101638.47
2023-05-21T22:42:01.448Z,101634.16
2023-05-21T22:44:27.875Z,101632.75
2023-05-21T22:46:56.283Z,101628.66
2023-05-21T22:49:22.821Z,101634.91
2023-05-21T22:51:49.468Z,101631.66
2023-05-21T22:54:15.973Z,101639.63
2023-05-21T22:56:42.390Z,101639.66
2023-05-21T22:59:08.779Z,101637.13
2023-05-21T23:01:36.898Z,101642.88
2023-05-21T23:04:03.774Z,101635.22
2023-05-21T23:06:30.597Z,101653.28
2023-05-21T23:08:57.061Z,101655.53
2023-05-21T23:11:23.551Z,101644.03
2023-05-21T23:13:49.954Z,101656.63
2023-05-21T23:16:16.877Z,101664.94
2023-05-21T23:18:43.318Z,101687.38
2023-05-21T23:21:09.943Z,101678.97
2023-05-21T23:23:36.421Z,101680.28
2023-05-21T23:26:02.856Z,101693.44
2023-05-21T23:28:29.316Z,101704.97
2023-05-21T23:30:55.908Z,101717.63
2023-05-21T23:33:22.406Z,101700.09
2023-05-21T23:35:48.780Z,101683.94
2023-05-21T23:38:15.300Z,101680.31
2023-05-21T23:40:42.171Z,101673.22
2023-05-21T23:43:08.645Z,101671.59
2023-05-21T23:45:35.053Z,101660.66
2023-05-21T23:48:01.542Z,101648.09
2023-05-21T23:50:27.959Z,101649.13
2023-05-21T23:52:54.469Z,101651.34
2023-05-21T23:55:20.919Z,101654.63
2023-05-21T23:57:47.298Z,101651.84
